sensor_id;sensor_type;location;lat;lon;timestamp;P1;durP1;ratioP1;P2;durP2;ratioP2
58091;SDS011;43896;48.178;11.578;2023-12-04T05:04:11;15.48;;;8.02;;
58091;SDS011;43896;48.178;11.578;2023-12-04T05:06:37;16.90;;;8.25;;
58091;SDS011;43896;48.178;11.578;2023-12-04T05:09:02;16.60;;;8.75;;
58091;SDS011;43896;48.178;11.578;2023-12-04T05:11:27;17.65;;;8.30;;
58091;SDS011;43896;48.178;11.578;2023-12-04T05:13:53;16.63;;;7.78;;
58091;SDS011;43896;48.178;11.578;2023-12-04T05:16:18;18.55;;;8.70;;
58091;SDS011;43896;48.178;11.578;2023-12-04T05:18:43;15.38;;;7.65;;
58091;SDS011;43896;48.178;11.578;2023-12-04T05:21:09;14.77;;;7.80;;
58091;SDS011;43896;48.178;11.578;2023-12-04T05:23:35;16.00;;;8.27;;
58091;SDS011;43896;48.178;11.578;2023-12-04T05:26:01;14.30;;;7.03;;
58091;SDS011;43896;48.178;11.578;2023-12-04T05:28:27;14.02;;;7.80;;
58091;SDS011;43896;48.178;11.578;2023-12-04T05:30:52;14.95;;;6.75;;
58091;SDS011;43896;48.178;11.578;2023-12-04T05:33:18;15.20;;;7.65;;
58091;SDS011;43896;48.178;11.578;2023-12-04T05:35:43;14.52;;;7.53;;
58091;SDS011;43896;48.178;11.578;2023-12-04T05:38:08;13.90;;;7.53;;
58091;SDS011;43896;48.178;11.578;2023-12-04T05:40:34;14.48;;;7.75;;
58091;SDS011;43896;48.178;11.578;2023-12-04T05:42:59;15.23;;;7.63;;
58091;SDS011;43896;48.178;11.578;2023-12-04T05:45:25;14.60;;;7.18;;
58091;SDS011;43896;48.178;11.578;2023-12-04T05:47:50;14.40;;;7.88;;
58091;SDS011;43896;48.178;11.578;2023-12-04T05:50:15;14.90;;;7.50;;
58091;SDS011;43896;48.178;11.578;2023-12-04T05:52:41;14.93;;;7.47;;
58091;SDS011;43896;48.178;11.578;2023-12-04T05:55:06;15.63;;;7.53;;
58091;SDS011;43896;48.178;11.578;2023-12-04T05:57:32;14.65;;;7.82;;
58091;SDS011;43896;48.178;11.578;2023-12-04T05:59:57;14.23;;;7.82;;
58091;SDS011;43896;48.178;11.578;2023-12-04T06:02:23;13.52;;;7.35;;
58091;SDS011;43896;48.178;11.578;2023-12-04T06:04:48;13.68;;;7.25;;
58091;SDS011;43896;48.178;11.578;2023-12-04T06:07:14;14.77;;;7.50;;
58091;SDS011;43896;48.178;11.578;2023-12-04T06:09:40;13.48;;;7.30;;
58091;SDS011;43896;48.178;11.578;2023-12-04T06:12:05;16.58;;;7.90;;
58091;SDS011;43896;48.178;11.578;2023-12-04T06:14:33;14.48;;;7.78;;
58091;SDS011;43896;48.178;11.578;2023-12-04T06:17:00;16.58;;;7.57;;
58091;SDS011;43896;48.178;11.578;2023-12-04T06:19:25;15.07;;;8.10;;
58091;SDS011;43896;48.178;11.578;2023-12-04T06:21:50;15.75;;;8.30;;
58091;SDS011;43896;48.178;11.578;2023-12-04T06:24:17;14.40;;;7.45;;
58091;SDS011;43896;48.178;11.578;2023-12-04T06:26:43;14.85;;;7.57;;
58091;SDS011;43896;48.178;11.578;2023-12-04T06:29:10;14.32;;;8.05;;
58091;SDS011;43896;48.178;11.578;2023-12-04T06:31:36;14.00;;;7.82;;
58091;SDS011;43896;48.178;11.578;2023-12-04T06:34:01;18.08;;;8.70;;
58091;SDS011;43896;48.178;11.578;2023-12-04T06:36:27;14.15;;;8.07;;
58091;SDS011;43896;48.178;11.578;2023-12-04T06:38:56;14.82;;;7.88;;
58091;SDS011;43896;48.178;11.578;2023-12-04T06:41:24;14.90;;;7.47;;
58091;SDS011;43896;48.178;11.578;2023-12-04T06:43:49;12.57;;;6.90;;
58091;SDS011;43896;48.178;11.578;2023-12-04T06:46:15;13.13;;;7.03;;
58091;SDS011;43896;48.178;11.578;2023-12-04T06:48:42;14.93;;;7.55;;
58091;SDS011;43896;48.178;11.578;2023-12-04T06:51:08;13.68;;;7.32;;
58091;SDS011;43896;48.178;11.578;2023-12-04T06:53:33;14.57;;;7.07;;
58091;SDS011;43896;48.178;11.578;2023-12-04T06:55:59;13.25;;;6.55;;
58091;SDS011;43896;48.178;11.578;2023-12-04T06:58:24;13.65;;;7.10;;
58091;SDS011;43896;48.178;11.578;2023-12-04T07:00:49;15.13;;;8.02;;
58091;SDS011;43896;48.178;11.578;2023-12-04T07:03:15;14.38;;;7.90;;
58091;SDS011;43896;48.178;11.578;2023-12-04T07:05:40;14.82;;;7.97;;
58091;SDS011;43896;48.178;11.578;2023-12-04T07:08:06;14.10;;;7.50;;
58091;SDS011;43896;48.178;11.578;2023-12-04T07:10:31;13.00;;;7.55;;
58091;SDS011;43896;48.178;11.578;2023-12-04T07:12:56;13.63;;;7.07;;
58091;SDS011;43896;48.178;11.578;2023-12-04T07:15:22;12.60;;;6.82;;
58091;SDS011;43896;48.178;11.578;2023-12-04T07:17:47;13.93;;;7.60;;
58091;SDS011;43896;48.178;11.578;2023-12-04T07:20:13;14.77;;;7.20;;
58091;SDS011;43896;48.178;11.578;2023-12-04T07:22:38;15.23;;;7.07;;
58091;SDS011;43896;48.178;11.578;2023-12-04T07:25:04;13.30;;;6.85;;
58091;SDS011;43896;48.178;11.578;2023-12-04T07:27:31;12.02;;;6.68;;
58091;SDS011;43896;48.178;11.578;2023-12-04T07:29:57;15.68;;;7.10;;
58091;SDS011;43896;48.178;11.578;2023-12-04T07:32:22;16.00;;;7.50;;
58091;SDS011;43896;48.178;11.578;2023-12-04T07:34:48;12.95;;;6.75;;
58091;SDS011;43896;48.178;11.578;2023-12-04T07:37:13;13.32;;;7.57;;
58091;SDS011;43896;48.178;11.578;2023-12-04T07:39:39;13.65;;;7.15;;
58091;SDS011;43896;48.178;11.578;2023-12-04T07:42:04;14.43;;;7.25;;
58091;SDS011;43896;48.178;11.578;2023-12-04T07:44:29;14.52;;;7.88;;
58091;SDS011;43896;48.178;11.578;2023-12-04T07:46:55;14.63;;;7.65;;
58091;SDS011;43896;48.178;11.578;2023-12-04T07:49:20;14.20;;;7.10;;
58091;SDS011;43896;48.178;11.578;2023-12-04T07:51:46;15.13;;;7.50;;
58091;SDS011;43896;48.178;11.578;2023-12-04T07:54:11;16.48;;;7.78;;
58091;SDS011;43896;48.178;11.578;2023-12-04T07:56:36;14.85;;;7.50;;
58091;SDS011;43896;48.178;11.578;2023-12-04T07:59:02;13.55;;;7.57;;
58091;SDS011;43896;48.178;11.578;2023-12-04T08:01:27;15.60;;;7.22;;
58091;SDS011;43896;48.178;11.578;2023-12-04T08:03:55;14.15;;;7.38;;
58091;SDS011;43896;48.178;11.578;2023-12-04T08:06:21;14.48;;;7.32;;
58091;SDS011;43896;48.178;11.578;2023-12-04T08:08:46;15.30;;;7.60;;
58091;SDS011;43896;48.178;11.578;2023-12-04T08:11:11;14.15;;;7.07;;
58091;SDS011;43896;48.178;11.578;2023-12-04T08:13:38;13.82;;;7.10;;
58091;SDS011;43896;48.178;11.578;2023-12-04T08:16:04;13.82;;;7.65;;
58091;SDS011;43896;48.178;11.578;2023-12-04T08:18:29;13.05;;;7.82;;
58091;SDS011;43896;48.178;11.578;2023-12-04T08:20:55;13.15;;;6.97;;
58091;SDS011;43896;48.178;11.578;2023-12-04T08:23:20;12.27;;;7.03;;
58091;SDS011;43896;48.178;11.578;2023-12-04T08:25:46;11.93;;;7.28;;
58091;SDS011;43896;48.178;11.578;2023-12-04T08:28:11;14.18;;;7.30;;
58091;SDS011;43896;48.178;11.578;2023-12-04T08:30:36;13.57;;;7.15;;
58091;SDS011;43896;48.178;11.578;2023-12-04T08:33:02;13.60;;;7.13;;
58091;SDS011;43896;48.178;11.578;2023-12-04T08:35:27;12.60;;;7.28;;
58091;SDS011;43896;48.178;11.578;2023-12-04T08:37:53;13.43;;;7.28;;
58091;SDS011;43896;48.178;11.578;2023-12-04T08:40:18;15.43;;;7.80;;
58091;SDS011;43896;48.178;11.578;2023-12-04T08:42:43;13.05;;;7.28;;
58091;SDS011;43896;48.178;11.578;2023-12-04T08:45:10;13.98;;;6.95;;
58091;SDS011;43896;48.178;11.578;2023-12-04T08:47:36;13.65;;;7.30;;
58091;SDS011;43896;48.178;11.578;2023-12-04T08:50:01;13.48;;;7.95;;
58091;SDS011;43896;48.178;11.578;2023-12-04T08:52:27;13.75;;;7.43;;
58091;SDS011;43896;48.178;11.578;2023-12-04T08:54:52;13.15;;;7.07;;
58091;SDS011;43896;48.178;11.578;2023-12-04T08:57:19;14.70;;;8.13;;
58091;SDS011;43896;48.178;11.578;2023-12-04T08:59:44;13.18;;;7.15;;
58091;SDS011;43896;48.178;11.578;2023-12-04T09:02:09;13.13;;;7.70;;
58091;SDS011;43896;48.178;11.578;2023-12-04T09:04:35;14.73;;;7.97;;
58091;SDS011;43896;48.178;11.578;2023-12-04T09:07:00;13.82;;;8.10;;
58091;SDS011;43896;48.178;11.578;2023-12-04T09:09:26;12.93;;;7.38;;
58091;SDS011;43896;48.178;11.578;2023-12-04T09:11:51;15.82;;;7.40;;
58091;SDS011;43896;48.178;11.578;2023-12-04T09:14:16;14.55;;;7.60;;
58091;SDS011;43896;48.178;11.578;2023-12-04T09:16:42;13.90;;;7.70;;
58091;SDS011;43896;48.178;11.578;2023-12-04T09:19:08;14.68;;;8.32;;
58091;SDS011;43896;48.178;11.578;2023-12-04T09:21:33;14.25;;;7.90;;
58091;SDS011;43896;48.178;11.578;2023-12-04T09:24:00;17.08;;;8.63;;
58091;SDS011;43896;48.178;11.578;2023-12-04T09:26:26;16.52;;;8.40;;
58091;SDS011;43896;48.178;11.578;2023-12-04T09:28:51;15.02;;;8.15;;
58091;SDS011;43896;48.178;11.578;2023-12-04T09:31:16;15.90;;;7.60;;
58091;SDS011;43896;48.178;11.578;2023-12-04T09:33:43;14.40;;;8.40;;
58091;SDS011;43896;48.178;11.578;2023-12-04T09:36:08;20.10;;;10.80;;
58091;SDS011;43896;48.178;11.578;2023-12-04T09:38:34;20.65;;;10.98;;
58091;SDS011;43896;48.178;11.578;2023-12-04T09:41:01;20.88;;;11.85;;
58091;SDS011;43896;48.178;11.578;2023-12-04T09:43:30;22.30;;;12.15;;
58091;SDS011;43896;48.178;11.578;2023-12-04T09:45:57;22.15;;;12.00;;
58091;SDS011;43896;48.178;11.578;2023-12-04T09:48:24;21.40;;;12.57;;
58091;SDS011;43896;48.178;11.578;2023-12-04T09:50:51;23.05;;;12.27;;
58091;SDS011;43896;48.178;11.578;2023-12-04T09:53:17;22.83;;;12.20;;
58091;SDS011;43896;48.178;11.578;2023-12-04T09:55:43;23.63;;;11.65;;
58091;SDS011;43896;48.178;11.578;2023-12-04T09:58:09;21.55;;;11.65;;
58091;SDS011;43896;48.178;11.578;2023-12-04T10:00:39;21.42;;;11.93;;
58091;SDS011;43896;48.178;11.578;2023-12-04T10:03:07;22.77;;;11.82;;
58091;SDS011;43896;48.178;11.578;2023-12-04T10:05:33;20.42;;;11.18;;
58091;SDS011;43896;48.178;11.578;2023-12-04T10:07:58;23.88;;;12.27;;
58091;SDS011;43896;48.178;11.578;2023-12-04T10:10:24;22.83;;;12.95;;
58091;SDS011;43896;48.178;11.578;2023-12-04T10:12:49;21.90;;;11.50;;
58091;SDS011;43896;48.178;11.578;2023-12-04T10:15:15;24.15;;;12.45;;
58091;SDS011;43896;48.178;11.578;2023-12-04T10:17:41;23.45;;;13.18;;
58091;SDS011;43896;48.178;11.578;2023-12-04T10:20:09;23.42;;;12.43;;
58091;SDS011;43896;48.178;11.578;2023-12-04T10:22:52;23.92;;;12.40;;
58091;SDS011;43896;48.178;11.578;2023-12-04T10:27:49;23.50;;;12.73;;
58091;SDS011;43896;48.178;11.578;2023-12-04T10:30:25;20.98;;;12.38;;
58091;SDS011;43896;48.178;11.578;2023-12-04T10:33:02;25.63;;;13.45;;
58091;SDS011;43896;48.178;11.578;2023-12-04T10:35:30;23.27;;;12.80;;
58091;SDS011;43896;48.178;11.578;2023-12-04T10:37:56;27.38;;;14.32;;
58091;SDS011;43896;48.178;11.578;2023-12-04T10:40:22;24.33;;;12.98;;
58091;SDS011;43896;48.178;11.578;2023-12-04T10:42:48;23.88;;;12.48;;
58091;SDS011;43896;48.178;11.578;2023-12-04T10:45:13;21.27;;;12.43;;
58091;SDS011;43896;48.178;11.578;2023-12-04T10:47:39;23.60;;;12.00;;
58091;SDS011;43896;48.178;11.578;2023-12-04T10:50:04;22.15;;;12.30;;
58091;SDS011;43896;48.178;11.578;2023-12-04T10:52:32;25.00;;;12.52;;
58091;SDS011;43896;48.178;11.578;2023-12-04T10:54:58;21.58;;;12.35;;
58091;SDS011;43896;48.178;11.578;2023-12-04T10:57:27;26.15;;;13.55;;
58091;SDS011;43896;48.178;11.578;2023-12-04T11:00:02;22.60;;;12.70;;
58091;SDS011;43896;48.178;11.578;2023-12-04T11:02:29;25.30;;;13.32;;
58091;SDS011;43896;48.178;11.578;2023-12-04T11:05:01;20.17;;;12.57;;
58091;SDS011;43896;48.178;11.578;2023-12-04T11:07:38;23.60;;;13.23;;
58091;SDS011;43896;48.178;11.578;2023-12-04T11:10:06;26.67;;;13.27;;
58091;SDS011;43896;48.178;11.578;2023-12-04T11:12:35;27.75;;;14.43;;
58091;SDS011;43896;48.178;11.578;2023-12-04T11:15:05;28.63;;;15.07;;
58091;SDS011;43896;48.178;11.578;2023-12-04T11:17:32;28.10;;;14.40;;
58091;SDS011;43896;48.178;11.578;2023-12-04T11:20:04;25.25;;;13.68;;
58091;SDS011;43896;48.178;11.578;2023-12-04T11:22:35;24.45;;;13.77;;
58091;SDS011;43896;48.178;11.578;2023-12-04T11:25:05;24.38;;;14.00;;
58091;SDS011;43896;48.178;11.578;2023-12-04T11:27:32;25.98;;;14.70;;
58091;SDS011;43896;48.178;11.578;2023-12-04T11:29:59;25.95;;;13.77;;
58091;SDS011;43896;48.178;11.578;2023-12-04T11:32:28;23.10;;;13.30;;
58091;SDS011;43896;48.178;11.578;2023-12-04T11:34:58;25.85;;;14.45;;
58091;SDS011;43896;48.178;11.578;2023-12-04T11:37:25;22.98;;;13.55;;
58091;SDS011;43896;48.178;11.578;2023-12-04T11:39:51;23.00;;;13.20;;
58091;SDS011;43896;48.178;11.578;2023-12-04T11:42:24;23.35;;;13.43;;
58091;SDS011;43896;48.178;11.578;2023-12-04T11:44:55;24.80;;;14.45;;
58091;SDS011;43896;48.178;11.578;2023-12-04T11:47:22;23.40;;;13.90;;
58091;SDS011;43896;48.178;11.578;2023-12-04T11:49:47;24.98;;;13.77;;
58091;SDS011;43896;48.178;11.578;2023-12-04T11:52:13;27.70;;;14.57;;
58091;SDS011;43896;48.178;11.578;2023-12-04T11:57:25;25.08;;;14.70;;
58091;SDS011;43896;48.178;11.578;2023-12-04T12:00:04;24.08;;;13.63;;
58091;SDS011;43896;48.178;11.578;2023-12-04T12:02:37;24.35;;;13.82;;
58091;SDS011;43896;48.178;11.578;2023-12-04T12:05:11;26.27;;;15.00;;
58091;SDS011;43896;48.178;11.578;2023-12-04T12:07:37;26.42;;;14.65;;
58091;SDS011;43896;48.178;11.578;2023-12-04T12:10:02;27.98;;;15.07;;
58091;SDS011;43896;48.178;11.578;2023-12-04T12:12:28;29.88;;;15.30;;
58091;SDS011;43896;48.178;11.578;2023-12-04T12:14:55;28.55;;;15.10;;
58091;SDS011;43896;48.178;11.578;2023-12-04T12:17:20;26.08;;;14.57;;
58091;SDS011;43896;48.178;11.578;2023-12-04T12:19:46;27.05;;;14.80;;
58091;SDS011;43896;48.178;11.578;2023-12-04T12:22:11;26.67;;;15.15;;
58091;SDS011;43896;48.178;11.578;2023-12-04T12:24:37;25.70;;;15.27;;
58091;SDS011;43896;48.178;11.578;2023-12-04T12:27:02;28.02;;;14.85;;
58091;SDS011;43896;48.178;11.578;2023-12-04T12:29:27;28.25;;;15.70;;
58091;SDS011;43896;48.178;11.578;2023-12-04T12:31:53;29.50;;;15.38;;
58091;SDS011;43896;48.178;11.578;2023-12-04T12:34:18;29.27;;;16.50;;
58091;SDS011;43896;48.178;11.578;2023-12-04T12:36:44;29.40;;;16.23;;
58091;SDS011;43896;48.178;11.578;2023-12-04T12:39:09;27.40;;;16.83;;
58091;SDS011;43896;48.178;11.578;2023-12-04T12:41:34;26.98;;;16.00;;
58091;SDS011;43896;48.178;11.578;2023-12-04T12:44:00;27.40;;;15.27;;
58091;SDS011;43896;48.178;11.578;2023-12-04T12:46:27;30.58;;;16.52;;
58091;SDS011;43896;48.178;11.578;2023-12-04T12:48:52;28.08;;;15.60;;
58091;SDS011;43896;48.178;11.578;2023-12-04T12:51:18;27.63;;;16.15;;
58091;SDS011;43896;48.178;11.578;2023-12-04T12:53:43;28.08;;;16.50;;
58091;SDS011;43896;48.178;11.578;2023-12-04T12:56:09;26.88;;;15.63;;
58091;SDS011;43896;48.178;11.578;2023-12-04T12:58:35;29.02;;;16.52;;
58091;SDS011;43896;48.178;11.578;2023-12-04T13:01:00;27.60;;;15.98;;
58091;SDS011;43896;48.178;11.578;2023-12-04T13:03:26;28.48;;;16.00;;
58091;SDS011;43896;48.178;11.578;2023-12-04T13:05:53;26.65;;;15.93;;
58091;SDS011;43896;48.178;11.578;2023-12-04T13:08:19;26.10;;;14.93;;
58091;SDS011;43896;48.178;11.578;2023-12-04T13:10:44;26.65;;;15.77;;
58091;SDS011;43896;48.178;11.578;2023-12-04T13:13:12;27.02;;;15.68;;
58091;SDS011;43896;48.178;11.578;2023-12-04T13:15:39;25.60;;;15.13;;
58091;SDS011;43896;48.178;11.578;2023-12-04T13:18:09;24.00;;;15.35;;
58091;SDS011;43896;48.178;11.578;2023-12-04T13:20:34;29.48;;;17.17;;
58091;SDS011;43896;48.178;11.578;2023-12-04T13:23:00;31.27;;;16.90;;
58091;SDS011;43896;48.178;11.578;2023-12-04T13:25:26;26.17;;;15.52;;
58091;SDS011;43896;48.178;11.578;2023-12-04T13:27:52;25.95;;;15.20;;
58091;SDS011;43896;48.178;11.578;2023-12-04T13:30:18;29.95;;;15.70;;
58091;SDS011;43896;48.178;11.578;2023-12-04T13:32:44;25.05;;;15.02;;
58091;SDS011;43896;48.178;11.578;2023-12-04T13:35:10;24.02;;;13.60;;
58091;SDS011;43896;48.178;11.578;2023-12-04T13:37:36;25.15;;;14.98;;
58091;SDS011;43896;48.178;11.578;2023-12-04T13:40:04;27.45;;;16.05;;
58091;SDS011;43896;48.178;11.578;2023-12-04T13:42:34;27.73;;;15.15;;
58091;SDS011;43896;48.178;11.578;2023-12-04T13:45:19;24.08;;;13.55;;
58091;SDS011;43896;48.178;11.578;2023-12-04T13:47:48;25.58;;;14.95;;
58091;SDS011;43896;48.178;11.578;2023-12-04T13:50:13;25.10;;;14.75;;
58091;SDS011;43896;48.178;11.578;2023-12-04T13:52:39;26.40;;;15.52;;
58091;SDS011;43896;48.178;11.578;2023-12-04T13:55:05;25.60;;;14.55;;
58091;SDS011;43896;48.178;11.578;2023-12-04T13:57:42;36.75;;;15.00;;
58091;SDS011;43896;48.178;11.578;2023-12-04T14:00:34;24.70;;;14.27;;
58091;SDS011;43896;48.178;11.578;2023-12-04T14:03:00;25.50;;;14.43;;
58091;SDS011;43896;48.178;11.578;2023-12-04T14:07:55;25.00;;;13.77;;
58091;SDS011;43896;48.178;11.578;2023-12-04T14:10:21;24.38;;;14.00;;
58091;SDS011;43896;48.178;11.578;2023-12-04T14:12:47;23.58;;;13.20;;
58091;SDS011;43896;48.178;11.578;2023-12-04T14:15:13;24.92;;;14.27;;
58091;SDS011;43896;48.178;11.578;2023-12-04T14:17:39;24.63;;;13.65;;
58091;SDS011;43896;48.178;11.578;2023-12-04T14:20:05;23.95;;;13.55;;
58091;SDS011;43896;48.178;11.578;2023-12-04T14:22:37;24.33;;;13.30;;
58091;SDS011;43896;48.178;11.578;2023-12-04T14:25:04;22.70;;;13.30;;
58091;SDS011;43896;48.178;11.578;2023-12-04T14:27:30;22.52;;;13.35;;
58091;SDS011;43896;48.178;11.578;2023-12-04T14:29:55;23.30;;;12.65;;
58091;SDS011;43896;48.178;11.578;2023-12-04T14:32:21;22.73;;;13.05;;
58091;SDS011;43896;48.178;11.578;2023-12-04T14:34:46;21.38;;;12.32;;
58091;SDS011;43896;48.178;11.578;2023-12-04T14:37:11;24.13;;;12.55;;
58091;SDS011;43896;48.178;11.578;2023-12-04T14:39:37;21.85;;;12.65;;
58091;SDS011;43896;48.178;11.578;2023-12-04T14:42:02;19.95;;;11.85;;
58091;SDS011;43896;48.178;11.578;2023-12-04T14:44:27;18.15;;;11.10;;
58091;SDS011;43896;48.178;11.578;2023-12-04T14:46:53;20.65;;;11.55;;
58091;SDS011;43896;48.178;11.578;2023-12-04T14:49:18;22.02;;;12.00;;
58091;SDS011;43896;48.178;11.578;2023-12-04T14:51:44;21.77;;;12.57;;
58091;SDS011;43896;48.178;11.578;2023-12-04T14:54:13;23.03;;;11.73;;
58091;SDS011;43896;48.178;11.578;2023-12-04T14:57:01;20.08;;;11.30;;
58091;SDS011;43896;48.178;11.578;2023-12-04T14:59:32;19.73;;;10.95;;
58091;SDS011;43896;48.178;11.578;2023-12-04T15:02:16;25.02;;;12.02;;
58091;SDS011;43896;48.178;11.578;2023-12-04T15:05:00;22.27;;;12.30;;
58091;SDS011;43896;48.178;11.578;2023-12-04T15:07:28;23.13;;;11.82;;
58091;SDS011;43896;48.178;11.578;2023-12-04T15:10:08;21.80;;;11.85;;
58091;SDS011;43896;48.178;11.578;2023-12-04T15:12:52;23.27;;;13.27;;
58091;SDS011;43896;48.178;11.578;2023-12-04T15:15:29;22.52;;;12.57;;
58091;SDS011;43896;48.178;11.578;2023-12-04T15:18:25;26.85;;;13.50;;
58091;SDS011;43896;48.178;11.578;2023-12-04T15:21:14;27.83;;;14.50;;
58091;SDS011;43896;48.178;11.578;2023-12-04T15:23:39;27.63;;;15.13;;
58091;SDS011;43896;48.178;11.578;2023-12-04T15:26:04;25.88;;;14.77;;
58091;SDS011;43896;48.178;11.578;2023-12-04T15:28:30;24.67;;;13.65;;
58091;SDS011;43896;48.178;11.578;2023-12-04T15:30:55;25.00;;;13.73;;
58091;SDS011;43896;48.178;11.578;2023-12-04T15:33:21;25.33;;;13.50;;
58091;SDS011;43896;48.178;11.578;2023-12-04T15:35:51;24.05;;;13.30;;
58091;SDS011;43896;48.178;11.578;2023-12-04T15:38:16;26.33;;;14.18;;
58091;SDS011;43896;48.178;11.578;2023-12-04T15:40:41;26.27;;;14.88;;
58091;SDS011;43896;48.178;11.578;2023-12-04T15:43:07;24.48;;;13.73;;
58091;SDS011;43896;48.178;11.578;2023-12-04T15:45:33;23.65;;;13.15;;
58091;SDS011;43896;48.178;11.578;2023-12-04T15:47:58;24.35;;;13.05;;
58091;SDS011;43896;48.178;11.578;2023-12-04T15:50:23;22.75;;;13.00;;
58091;SDS011;43896;48.178;11.578;2023-12-04T15:52:50;24.05;;;13.30;;
58091;SDS011;43896;48.178;11.578;2023-12-04T15:55:15;23.45;;;13.20;;
58091;SDS011;43896;48.178;11.578;2023-12-04T15:57:41;22.63;;;12.85;;
58091;SDS011;43896;48.178;11.578;2023-12-04T16:00:06;24.67;;;13.60;;
58091;SDS011;43896;48.178;11.578;2023-12-04T16:02:34;24.33;;;13.23;;
58091;SDS011;43896;48.178;11.578;2023-12-04T16:05:00;23.20;;;13.48;;
58091;SDS011;43896;48.178;11.578;2023-12-04T16:07:25;24.27;;;13.77;;
58091;SDS011;43896;48.178;11.578;2023-12-04T16:09:50;25.80;;;14.15;;
58091;SDS011;43896;48.178;11.578;2023-12-04T16:12:16;23.85;;;14.05;;
58091;SDS011;43896;48.178;11.578;2023-12-04T16:14:41;23.58;;;13.27;;
58091;SDS011;43896;48.178;11.578;2023-12-04T16:17:07;25.88;;;14.15;;
58091;SDS011;43896;48.178;11.578;2023-12-04T16:19:32;25.08;;;14.02;;
58091;SDS011;43896;48.178;11.578;2023-12-04T16:21:58;22.17;;;13.15;;
58091;SDS011;43896;48.178;11.578;2023-12-04T16:24:25;22.08;;;13.05;;
58091;SDS011;43896;48.178;11.578;2023-12-04T16:26:51;24.88;;;13.05;;
58091;SDS011;43896;48.178;11.578;2023-12-04T16:29:20;20.95;;;12.73;;
58091;SDS011;43896;48.178;11.578;2023-12-04T16:31:45;22.23;;;13.70;;
58091;SDS011;43896;48.178;11.578;2023-12-04T16:34:11;26.85;;;14.85;;
58091;SDS011;43896;48.178;11.578;2023-12-04T16:36:37;27.73;;;13.57;;
58091;SDS011;43896;48.178;11.578;2023-12-04T16:39:03;22.73;;;13.48;;
58091;SDS011;43896;48.178;11.578;2023-12-04T16:41:28;23.38;;;13.10;;
58091;SDS011;43896;48.178;11.578;2023-12-04T16:43:54;25.95;;;13.50;;
58091;SDS011;43896;48.178;11.578;2023-12-04T16:46:20;22.45;;;13.05;;
58091;SDS011;43896;48.178;11.578;2023-12-04T16:48:45;24.00;;;13.07;;
58091;SDS011;43896;48.178;11.578;2023-12-04T16:51:10;22.42;;;12.57;;
58091;SDS011;43896;48.178;11.578;2023-12-04T16:53:36;26.38;;;13.48;;
58091;SDS011;43896;48.178;11.578;2023-12-04T16:56:01;24.52;;;13.07;;
58091;SDS011;43896;48.178;11.578;2023-12-04T16:58:26;24.23;;;12.40;;
58091;SDS011;43896;48.178;11.578;2023-12-04T17:00:52;23.80;;;12.68;;
58091;SDS011;43896;48.178;11.578;2023-12-04T17:03:17;29.17;;;13.63;;
58091;SDS011;43896;48.178;11.578;2023-12-04T17:05:43;24.77;;;12.90;;
58091;SDS011;43896;48.178;11.578;2023-12-04T17:08:08;24.88;;;12.63;;
58091;SDS011;43896;48.178;11.578;2023-12-04T17:10:34;23.10;;;12.32;;
58091;SDS011;43896;48.178;11.578;2023-12-04T17:12:59;24.00;;;12.85;;
58091;SDS011;43896;48.178;11.578;2023-12-04T17:15:24;27.45;;;13.45;;
58091;SDS011;43896;48.178;11.578;2023-12-04T17:17:50;24.27;;;13.52;;
58091;SDS011;43896;48.178;11.578;2023-12-04T17:20:15;24.48;;;13.65;;
58091;SDS011;43896;48.178;11.578;2023-12-04T17:22:40;25.88;;;14.23;;
58091;SDS011;43896;48.178;11.578;2023-12-04T17:25:06;25.77;;;14.23;;
58091;SDS011;43896;48.178;11.578;2023-12-04T17:27:32;26.85;;;14.73;;
58091;SDS011;43896;48.178;11.578;2023-12-04T17:29:57;29.40;;;16.63;;
58091;SDS011;43896;48.178;11.578;2023-12-04T17:32:23;26.88;;;14.57;;
58091;SDS011;43896;48.178;11.578;2023-12-04T17:34:48;27.38;;;14.70;;
58091;SDS011;43896;48.178;11.578;2023-12-04T17:37:14;28.25;;;14.30;;
58091;SDS011;43896;48.178;11.578;2023-12-04T17:39:40;22.75;;;13.18;;
58091;SDS011;43896;48.178;11.578;2023-12-04T17:42:07;23.48;;;13.43;;
58091;SDS011;43896;48.178;11.578;2023-12-04T17:44:33;23.20;;;13.52;;
58091;SDS011;43896;48.178;11.578;2023-12-04T17:46:58;24.48;;;14.23;;
58091;SDS011;43896;48.178;11.578;2023-12-04T17:49:24;22.48;;;13.07;;
58091;SDS011;43896;48.178;11.578;2023-12-04T17:51:49;23.45;;;13.25;;
58091;SDS011;43896;48.178;11.578;2023-12-04T17:54:15;22.35;;;12.95;;
58091;SDS011;43896;48.178;11.578;2023-12-04T17:56:40;22.27;;;12.95;;
58091;SDS011;43896;48.178;11.578;2023-12-04T17:59:05;23.40;;;13.02;;
58091;SDS011;43896;48.178;11.578;2023-12-04T18:01:31;23.80;;;13.07;;
58091;SDS011;43896;48.178;11.578;2023-12-04T18:03:56;22.67;;;13.35;;
58091;SDS011;43896;48.178;11.578;2023-12-04T18:06:26;23.42;;;12.90;;
58091;SDS011;43896;48.178;11.578;2023-12-04T18:08:56;25.52;;;13.18;;
58091;SDS011;43896;48.178;11.578;2023-12-04T18:11:22;22.05;;;13.27;;
58091;SDS011;43896;48.178;11.578;2023-12-04T18:13:52;24.88;;;13.18;;
58091;SDS011;43896;48.178;11.578;2023-12-04T18:16:18;25.30;;;13.43;;
58091;SDS011;43896;48.178;11.578;2023-12-04T18:18:45;22.05;;;13.10;;
58091;SDS011;43896;48.178;11.578;2023-12-04T18:21:11;22.83;;;12.73;;
58091;SDS011;43896;48.178;11.578;2023-12-04T18:23:36;23.98;;;13.63;;
58091;SDS011;43896;48.178;11.578;2023-12-04T18:26:03;23.45;;;13.07;;
58091;SDS011;43896;48.178;11.578;2023-12-04T18:28:29;24.17;;;13.55;;
58091;SDS011;43896;48.178;11.578;2023-12-04T18:30:55;24.48;;;13.77;;
58091;SDS011;43896;48.178;11.578;2023-12-04T18:33:21;26.48;;;13.98;;
58091;SDS011;43896;48.178;11.578;2023-12-04T18:35:47;23.23;;;13.23;;
58091;SDS011;43896;48.178;11.578;2023-12-04T18:38:13;26.00;;;14.07;;
58091;SDS011;43896;48.178;11.578;2023-12-04T18:40:43;25.98;;;14.40;;
58091;SDS011;43896;48.178;11.578;2023-12-04T18:43:09;24.70;;;13.40;;
58091;SDS011;43896;48.178;11.578;2023-12-04T18:45:35;26.33;;;14.13;;
58091;SDS011;43896;48.178;11.578;2023-12-04T18:48:03;26.05;;;14.15;;
58091;SDS011;43896;48.178;11.578;2023-12-04T18:50:40;24.67;;;14.63;;
58091;SDS011;43896;48.178;11.578;2023-12-04T18:53:07;27.63;;;15.35;;
58091;SDS011;43896;48.178;11.578;2023-12-04T18:55:32;27.80;;;15.10;;
58091;SDS011;43896;48.178;11.578;2023-12-04T18:57:58;30.92;;;15.98;;
58091;SDS011;43896;48.178;11.578;2023-12-04T19:00:23;24.92;;;15.35;;
58091;SDS011;43896;48.178;11.578;2023-12-04T19:02:52;28.15;;;15.88;;
58091;SDS011;43896;48.178;11.578;2023-12-04T19:05:18;28.45;;;15.75;;
58091;SDS011;43896;48.178;11.578;2023-12-04T19:07:43;26.88;;;15.13;;
58091;SDS011;43896;48.178;11.578;2023-12-04T19:10:09;28.30;;;15.70;;
58091;SDS011;43896;48.178;11.578;2023-12-04T19:12:34;27.45;;;16.13;;
58091;SDS011;43896;48.178;11.578;2023-12-04T19:15:00;32.30;;;18.15;;
58091;SDS011;43896;48.178;11.578;2023-12-04T19:17:25;28.52;;;16.65;;
58091;SDS011;43896;48.178;11.578;2023-12-04T19:19:51;29.85;;;16.73;;
58091;SDS011;43896;48.178;11.578;2023-12-04T19:22:16;28.55;;;16.48;;